Time;durP1;ratioP1;P1;durP2;ratioP2;P2;SDS_P1;SDS_P2;PMS_P1;PMS_P2;Temp;Humidity;BMP_temperature;BMP_pressure;BME280_temperature;BME280_humidity;BME280_pressure;Samples;Min_cycle;Max_cycle;Signal;HPM_P1;HPM_P2
2023/07/18 00:03:15;;;;;;;4.53;2.53;;;;;;;22.04;45.80;99304.97;7000966;28;20233;-84
2023/07/18 00:06:38;;;;;;;5.50;2.57;;;;;;;21.69;46.33;99268.22;7001556;28;20198;-82
2023/07/18 00:10:01;;;;;;;6.20;2.63;;;;;;;22.08;45.78;99308.81;7002517;28;20641;-82
2023/07/18 00:13:22;;;;;;;3.90;2.87;;;;;;;21.83;46.94;99307.88;7002233;28;20257;-82
2023/07/18 00:16:44;;;;;;;4.07;2.70;;;;;;;22.04;45.72;99320.59;7002785;28;20727;-82
2023/07/18 00:20:12;;;;;;;3.53;2.80;;;;;;;21.56;46.29;99310.69;7002565;28;20245;-81
2023/07/18 00:23:33;;;;;;;3.17;2.50;;;;;;;21.72;46.61;99319.88;7003588;28;20243;-83
2023/07/18 00:26:57;;;;;;;3.23;2.77;;;;;;;21.77;46.47;99320.72;7002723;28;20213;-82
2023/07/18 00:30:18;;;;;;;5.80;2.73;;;;;;;21.83;46.46;99316.09;7002642;28;20225;-83
2023/07/18 00:33:40;;;;;;;7.40;2.70;;;;;;;21.71;46.63;99312.75;7002493;28;20202;-82
2023/07/18 00:37:03;;;;;;;3.90;2.70;;;;;;;21.92;45.67;99325.47;6994995;28;20211;-82
2023/07/18 00:40:26;;;;;;;5.27;2.50;;;;;;;21.85;45.73;99305.69;6976164;28;20615;-82
2023/07/18 00:43:48;;;;;;;4.63;2.70;;;;;;;21.68;46.48;99321.47;6974511;28;20691;-82
2023/07/18 00:47:10;;;;;;;3.73;2.60;;;;;;;21.54;47.00;99312.84;6973919;28;20822;-82
2023/07/18 00:50:32;;;;;;;3.63;2.50;;;;;;;21.43;46.74;99313.03;6996875;28;20228;-84
2023/07/18 00:53:54;;;;;;;2.43;2.10;;;;;;;21.41;46.58;99304.22;6999684;28;20205;-84
2023/07/18 00:57:15;;;;;;;5.70;2.73;;;;;;;21.36;46.44;99305.00;6999680;28;20349;-84
2023/07/18 01:00:39;;;;;;;3.73;2.30;;;;;;;20.70;48.73;99304.63;6999669;28;20228;-84
2023/07/18 01:04:01;;;;;;;5.57;3.00;;;;;;;21.07;48.16;99305.59;7000148;28;20635;-83
2023/07/18 01:07:22;;;;;;;5.00;2.67;;;;;;;21.10;47.99;99307.81;6998663;28;20332;-84
2023/07/18 01:10:44;;;;;;;3.97;2.27;;;;;;;21.18;47.93;99305.41;6998982;28;20717;-84
2023/07/18 01:14:05;;;;;;;3.87;2.80;;;;;;;21.37;47.08;99301.19;6999297;28;20259;-84
2023/07/18 01:17:28;;;;;;;7.20;3.17;;;;;;;21.11;48.20;99300.41;7000640;28;20202;-82
2023/07/18 01:20:50;;;;;;;3.10;2.80;;;;;;;21.09;48.19;99297.94;6999930;28;20234;-82
2023/07/18 01:24:13;;;;;;;5.37;2.57;;;;;;;21.26;47.84;99293.16;6998125;28;20380;-82
2023/07/18 01:27:36;;;;;;;3.57;2.87;;;;;;;20.92;47.81;99296.41;6998113;28;20247;-83
2023/07/18 01:30:58;;;;;;;5.50;2.73;;;;;;;20.37;49.42;99282.06;6999645;28;20655;-83
2023/07/18 01:34:19;;;;;;;4.77;2.90;;;;;;;20.22;49.92;99287.38;6998606;28;20206;-84
2023/07/18 01:37:44;;;;;;;7.60;2.53;;;;;;;20.24;50.23;99268.78;6997837;28;20278;-84
2023/07/18 01:41:08;;;;;;;2.97;2.63;;;;;;;20.69;49.53;99289.28;6999428;28;20230;-84
2023/07/18 01:44:29;;;;;;;4.63;2.77;;;;;;;20.49;49.41;99274.53;6998384;28;20229;-84
2023/07/18 01:47:52;;;;;;;4.73;2.67;;;;;;;20.88;48.34;99263.19;6997629;28;20206;-84
2023/07/18 01:51:13;;;;;;;3.73;2.70;;;;;;;20.61;49.20;99281.53;6998807;28;20254;-84
2023/07/18 01:54:35;;;;;;;4.07;2.87;;;;;;;20.45;49.32;99262.44;6998233;28;20232;-84
2023/07/18 01:57:57;;;;;;;5.67;2.80;;;;;;;20.37;49.56;99260.16;6998464;28;20214;-82
2023/07/18 02:01:19;;;;;;;4.20;3.00;;;;;;;19.89;50.67;99284.72;6999432;28;20280;-82
2023/07/18 02:04:40;;;;;;;4.03;3.10;;;;;;;20.14;50.90;99287.81;6994398;28;20237;-82
2023/07/18 02:08:02;;;;;;;3.77;2.60;;;;;;;20.48;49.79;99286.56;6998710;28;20226;-83
2023/07/18 02:11:23;;;;;;;5.50;3.13;;;;;;;20.19;50.08;99287.88;6998561;28;20427;-82
2023/07/18 02:14:46;;;;;;;3.00;2.70;;;;;;;20.03;50.61;99255.88;6998873;28;20694;-82
2023/07/18 02:18:08;;;;;;;4.60;3.30;;;;;;;20.09;50.87;99279.53;6997907;28;20226;-83
2023/07/18 02:21:29;;;;;;;6.07;3.10;;;;;;;20.17;51.06;99276.34;6998005;28;20771;-84
2023/07/18 02:24:51;;;;;;;4.77;2.80;;;;;;;20.28;50.91;99272.66;6997719;28;20278;-84
2023/07/18 02:28:12;;;;;;;4.10;3.10;;;;;;;20.06;51.11;99269.94;6997109;28;20230;-84
2023/07/18 02:31:35;;;;;;;3.33;2.97;;;;;;;20.29;50.41;99268.84;6997562;28;20206;-84
2023/07/18 02:34:58;;;;;;;4.13;2.90;;;;;;;20.21;50.91;99267.38;6996693;28;20262;-84
2023/07/18 02:38:19;;;;;;;5.13;2.97;;;;;;;19.84;51.73;99276.41;6986671;28;20306;-84
2023/07/18 02:41:41;;;;;;;5.20;3.50;;;;;;;19.07;53.40;99275.50;6985398;28;20202;-82
2023/07/18 02:45:02;;;;;;;3.27;2.97;;;;;;;19.42;53.36;99264.31;6996070;28;20226;-82
2023/07/18 02:48:25;;;;;;;7.07;3.37;;;;;;;19.60;53.02;99280.47;6996030;28;20221;-81
2023/07/18 02:51:47;;;;;;;4.33;2.73;;;;;;;19.43;52.81;99282.38;6997042;28;20686;-81
2023/07/18 02:55:08;;;;;;;5.30;3.53;;;;;;;19.00;54.37;99279.47;6996798;28;20205;-82
2023/07/18 02:58:30;;;;;;;4.70;3.30;;;;;;;19.43;53.73;99276.91;6996071;28;20286;-82
2023/07/18 03:01:54;;;;;;;3.10;2.50;;;;;;;19.18;51.91;99183.53;6997082;28;20683;-81
2023/07/18 03:05:17;;;;;;;4.43;3.07;;;;;;;19.20;52.82;99266.97;6996773;28;20633;-82
2023/07/18 03:08:39;;;;;;;4.63;3.00;;;;;;;19.18;54.32;99271.03;6998042;28;20590;-83
2023/07/18 03:12:00;;;;;;;3.37;3.00;;;;;;;19.31;53.53;99270.72;7002290;28;20258;-82
2023/07/18 03:15:22;;;;;;;4.43;2.80;;;;;;;19.68;52.02;99275.38;7001176;28;20202;-82
2023/07/18 03:18:43;;;;;;;6.47;3.27;;;;;;;19.50;52.66;99280.31;7001142;28;20769;-82
2023/07/18 03:22:06;;;;;;;5.00;3.40;;;;;;;19.24;53.41;99283.72;7001711;28;20206;-82
2023/07/18 03:25:28;;;;;;;3.83;2.90;;;;;;;19.53;52.92;99277.06;7001236;28;20629;-84
2023/07/18 03:28:50;;;;;;;4.87;2.80;;;;;;;19.90;51.15;99270.78;7001650;28;20773;-84
2023/07/18 03:32:11;;;;;;;3.73;3.30;;;;;;;19.47;52.37;99267.13;7001926;28;20206;-84
2023/07/18 03:35:39;;;;;;;10.30;3.87;;;;;;;18.97;53.96;99272.59;7000116;28;20272;-84
2023/07/18 03:39:02;;;;;;;5.97;3.40;;;;;;;19.00;54.08;99269.38;7002666;28;20259;-84
2023/07/18 03:42:24;;;;;;;3.10;2.70;;;;;;;19.24;53.37;99279.09;7001725;28;20232;-84
2023/07/18 03:45:45;;;;;;;8.03;3.27;;;;;;;19.28;53.33;99273.97;7001993;28;20246;-84
2023/07/18 03:49:07;;;;;;;7.77;3.43;;;;;;;19.38;53.38;99272.22;7002810;28;20279;-84
2023/07/18 03:52:29;;;;;;;3.00;2.70;;;;;;;19.11;54.02;99265.72;7001228;28;20593;-84
2023/07/18 03:55:51;;;;;;;3.93;3.50;;;;;;;19.15;52.97;99286.00;7000620;28;20347;-83
2023/07/18 03:59:13;;;;;;;6.23;3.60;;;;;;;18.88;54.55;99282.25;7001642;28;20590;-83
2023/07/18 04:02:34;;;;;;;4.77;3.30;;;;;;;18.98;53.56;99273.44;6998722;28;20221;-82
2023/07/18 04:05:56;;;;;;;3.07;2.70;;;;;;;18.94;54.24;99275.00;6998027;28;20278;-84
2023/07/18 04:09:17;;;;;;;5.40;3.20;;;;;;;18.82;54.91;99274.25;7001228;28;20300;-84
2023/07/18 04:12:40;;;;;;;4.80;3.40;;;;;;;18.75;55.13;99281.75;6974019;28;20248;-84
2023/07/18 04:16:02;;;;;;;4.97;3.40;;;;;;;18.76;55.27;99267.03;6976522;28;20207;-84
2023/07/18 04:19:23;;;;;;;8.30;3.33;;;;;;;19.01;54.01;99265.56;6972865;28;20321;-83
2023/07/18 04:22:45;;;;;;;4.93;3.23;;;;;;;19.36;53.27;99274.38;6992616;28;20336;-83
2023/07/18 04:26:09;;;;;;;5.40;3.87;;;;;;;19.30;53.01;99280.84;6999927;28;20234;-85
2023/07/18 04:29:32;;;;;;;3.33;3.00;;;;;;;19.78;53.02;99274.69;6998851;28;20221;-85
2023/07/18 04:33:00;;;;;;;3.30;2.73;;;;;;;20.29;51.51;99260.63;6997547;28;20197;-85
2023/07/18 04:36:21;;;;;;;3.53;2.97;;;;;;;20.06;50.80;99272.66;6998706;28;20263;-85
2023/07/18 04:39:45;;;;;;;5.57;3.80;;;;;;;19.78;52.01;99270.06;6992407;28;20423;-85
2023/07/18 04:43:07;;;;;;;6.70;3.63;;;;;;;20.33;50.71;99267.25;6998708;28;20213;-83
2023/07/18 04:46:30;;;;;;;4.40;2.77;;;;;;;20.49;50.25;99249.88;7000071;28;20659;-84
2023/07/18 04:49:51;;;;;;;4.17;3.50;;;;;;;18.67;54.72;99239.28;7000738;28;20355;-84
2023/07/18 04:53:13;;;;;;;5.10;3.27;;;;;;;19.95;51.81;99248.94;7005898;28;20281;-83
2023/07/18 04:56:35;;;;;;;3.93;3.30;;;;;;;20.38;50.96;99212.50;7002843;28;20261;-85
2023/07/18 04:59:56;;;;;;;5.10;3.00;;;;;;;21.10;49.86;99250.22;7000841;28;20653;-84
2023/07/18 05:03:19;;;;;;;4.37;3.40;;;;;;;20.74;49.92;99214.53;6997040;28;20207;-84
2023/07/18 05:06:41;;;;;;;4.60;3.30;;;;;;;20.90;49.94;99241.84;6996840;28;20202;-82
2023/07/18 05:10:03;;;;;;;4.50;3.30;;;;;;;21.57;48.86;99246.47;7002121;28;20224;-82
2023/07/18 05:13:24;;;;;;;5.03;3.20;;;;;;;21.52;48.69;99240.09;7001251;28;20685;-83
2023/07/18 05:16:46;;;;;;;5.67;2.80;;;;;;;21.71;49.41;99238.63;6993876;28;20348;-82
2023/07/18 05:20:11;;;;;;;4.27;3.50;;;;;;;21.97;48.18;99251.38;6989907;28;20359;-82
2023/07/18 05:23:33;;;;;;;4.67;3.47;;;;;;;22.27;47.07;99233.09;6985880;28;20194;-81
2023/07/18 05:26:54;;;;;;;4.00;3.20;;;;;;;22.76;46.01;99233.50;6998472;28;20364;-82
2023/07/18 05:30:17;;;;;;;6.03;3.33;;;;;;;22.36;46.33;99176.50;6998697;28;20617;-82
2023/07/18 05:33:39;;;;;;;3.90;3.53;;;;;;;22.93;45.32;99231.31;6998252;28;20269;-84
2023/07/18 05:37:02;;;;;;;4.43;3.57;;;;;;;23.09;46.48;99239.31;6997864;28;20345;-84
2023/07/18 05:40:23;;;;;;;6.60;3.50;;;;;;;23.39;44.70;99236.56;6998685;28;20237;-83
2023/07/18 05:43:45;;;;;;;6.43;3.33;;;;;;;23.19;45.08;99228.31;6996819;28;20689;-84
2023/07/18 05:47:07;;;;;;;5.33;3.40;;;;;;;22.88;46.36;99225.81;6994569;28;20272;-85
2023/07/18 05:50:28;;;;;;;6.23;3.53;;;;;;;23.33;44.94;99220.34;6996715;28;20369;-83
2023/07/18 05:53:51;;;;;;;4.97;3.60;;;;;;;23.15;45.23;99207.94;6995451;28;20240;-84
2023/07/18 05:57:13;;;;;;;4.30;3.43;;;;;;;23.90;44.91;99215.28;7001035;28;20685;-84
2023/07/18 06:00:35;;;;;;;4.97;3.50;;;;;;;24.61;43.49;99208.31;6981225;28;20314;-83
2023/07/18 06:03:57;;;;;;;7.97;3.60;;;;;;;24.41;43.58;99200.97;6998436;28;20707;-84
2023/07/18 06:07:19;;;;;;;5.30;3.50;;;;;;;24.94;42.94;99199.22;6999589;28;20215;-83
2023/07/18 06:10:41;;;;;;;4.90;3.57;;;;;;;25.10;42.46;99192.47;6999733;28;20378;-85
2023/07/18 06:14:05;;;;;;;4.87;2.97;;;;;;;25.27;41.63;99196.50;7000942;28;20775;-81
2023/07/18 06:17:27;;;;;;;5.17;3.30;;;;;;;25.62;41.33;99192.56;6992200;28;20212;-80
2023/07/18 06:20:49;;;;;;;3.83;3.40;;;;;;;26.69;38.67;99173.19;7001746;28;20224;-80
2023/07/18 06:24:11;;;;;;;4.13;3.13;;;;;;;26.89;39.23;99186.69;7001552;28;20222;-80
2023/07/18 06:27:34;;;;;;;3.27;2.93;;;;;;;27.20;38.32;99179.56;7001943;28;20206;-80
2023/07/18 06:30:56;;;;;;;6.50;3.47;;;;;;;27.10;39.30;99182.47;7002434;28;20316;-79
2023/07/18 06:42:06;;;;;;;3.77;3.17;;;;;;;28.48;35.20;99156.22;7582668;22;20232;-84
2023/07/18 06:45:29;;;;;;;5.50;3.10;;;;;;;28.08;35.32;99146.00;6992899;28;20236;-83
2023/07/18 06:48:52;;;;;;;4.43;3.00;;;;;;;27.97;35.22;99084.41;6978166;28;20686;-83
2023/07/18 06:52:13;;;;;;;6.87;3.07;;;;;;;28.64;34.93;99143.59;7005690;28;20194;-82
2023/07/18 06:55:35;;;;;;;5.63;2.83;;;;;;;29.39;32.50;99150.03;6988456;28;20697;-82
2023/07/18 06:58:58;;;;;;;3.97;3.27;;;;;;;28.79;34.10;99151.56;6974026;28;20238;-82
2023/07/18 07:02:22;;;;;;;5.67;3.23;;;;;;;27.53;33.60;99153.47;6974086;28;20197;-82
2023/07/18 07:05:43;;;;;;;3.33;2.73;;;;;;;26.91;33.22;99150.44;6974513;28;20633;-82
2023/07/18 07:09:05;;;;;;;3.30;2.77;;;;;;;27.24;33.37;99154.88;6975569;28;20735;-83
2023/07/18 07:12:27;;;;;;;3.90;2.80;;;;;;;26.81;35.18;99132.06;6975184;28;20344;-83
2023/07/18 07:15:50;;;;;;;3.40;2.50;;;;;;;27.16;34.26;99139.78;6999018;28;20207;-82
2023/07/18 07:19:14;;;;;;;6.33;3.43;;;;;;;28.37;32.97;99127.06;7004527;28;20224;-82
2023/07/18 07:22:35;;;;;;;5.37;2.77;;;;;;;26.86;34.16;99136.69;6986889;28;20689;-81
2023/07/18 07:25:57;;;;;;;5.47;2.67;;;;;;;27.18;33.96;99120.91;6973097;28;20222;-82
2023/07/18 07:29:18;;;;;;;4.83;2.63;;;;;;;28.10;32.64;99099.34;6974370;28;20231;-80
2023/07/18 07:32:40;;;;;;;3.70;2.73;;;;;;;28.87;33.08;99111.94;6976541;28;20299;-82
2023/07/18 07:36:03;;;;;;;4.50;2.70;;;;;;;28.66;32.55;99108.84;6974677;28;20620;-83
2023/07/18 07:39:25;;;;;;;4.30;3.10;;;;;;;28.18;32.65;99093.91;6975494;28;20239;-83
2023/07/18 07:42:47;;;;;;;6.67;2.50;;;;;;;29.65;30.75;99103.72;6973575;28;20354;-83
2023/07/18 07:46:08;;;;;;;4.00;2.70;;;;;;;30.00;29.79;99095.19;6974594;28;20698;-82
2023/07/18 07:49:30;;;;;;;2.47;2.27;;;;;;;30.82;30.12;99084.78;6974136;28;20286;-83
2023/07/18 07:52:53;;;;;;;3.30;2.70;;;;;;;30.11;29.35;99093.75;6972809;28;20204;-83
2023/07/18 07:56:14;;;;;;;5.77;2.63;;;;;;;30.29;29.08;99063.97;6970153;28;20342;-83
2023/07/18 07:59:36;;;;;;;7.27;2.80;;;;;;;29.88;29.48;99074.69;6946711;28;20233;-82
2023/07/18 08:02:57;;;;;;;5.50;2.77;;;;;;;31.22;27.99;99077.81;6944375;28;20242;-83
2023/07/18 08:06:19;;;;;;;3.97;2.30;;;;;;;31.25;28.24;98998.31;6945455;28;20578;-83
2023/07/18 08:09:42;;;;;;;4.03;2.33;;;;;;;31.26;28.06;99050.91;6945512;28;20227;-82
2023/07/18 08:13:04;;;;;;;2.53;2.33;;;;;;;31.28;27.69;99042.22;6945805;28;20214;-83
2023/07/18 08:16:26;;;;;;;3.20;2.27;;;;;;;30.72;28.41;99007.16;6945033;28;20572;-81
2023/07/18 08:19:48;;;;;;;4.97;2.67;;;;;;;30.56;28.49;99044.16;6944815;28;20221;-85
2023/07/18 08:23:11;;;;;;;3.00;2.37;;;;;;;29.93;29.76;98972.47;6945461;28;20271;-83
2023/07/18 08:26:34;;;;;;;18.37;4.27;;;;;;;31.38;28.19;98988.91;6949683;28;20292;-81
2023/07/18 08:29:56;;;;;;;5.03;2.67;;;;;;;31.15;28.01;99048.81;6947272;28;20235;-82
2023/07/18 08:33:19;;;;;;;4.37;2.60;;;;;;;29.83;28.46;99049.84;6945275;28;20230;-82
2023/07/18 08:36:42;;;;;;;3.03;2.27;;;;;;;31.76;26.54;99035.13;6944592;28;20265;-82
2023/07/18 08:40:05;;;;;;;6.63;2.33;;;;;;;30.54;27.39;99032.56;6944657;28;20225;-87
2023/07/18 08:43:28;;;;;;;3.87;2.33;;;;;;;30.23;27.40;99024.38;6965053;28;20306;-84
2023/07/18 08:46:50;;;;;;;2.50;2.30;;;;;;;31.80;26.44;99011.00;6971736;28;20679;-83
2023/07/18 08:50:12;;;;;;;3.70;2.10;;;;;;;33.18;24.42;99012.16;6971741;28;20354;-85
2023/07/18 08:53:34;;;;;;;4.63;2.97;;;;;;;32.64;25.52;99013.41;6971752;28;20260;-86
2023/07/18 08:56:56;;;;;;;4.17;2.40;;;;;;;32.25;26.01;98998.00;6971185;28;20244;-82
2023/07/18 09:00:20;;;;;;;3.80;2.40;;;;;;;32.36;24.91;98999.22;6944242;28;20223;-82
2023/07/18 09:03:42;;;;;;;6.60;2.37;;;;;;;32.96;25.05;99007.03;6949330;28;20718;-82
2023/07/18 09:07:04;;;;;;;5.63;2.07;;;;;;;32.54;25.00;98956.00;6971215;28;20758;-82
2023/07/18 09:10:26;;;;;;;3.47;2.33;;;;;;;30.80;27.27;98992.41;6944470;28;20256;-83
2023/07/18 09:13:48;;;;;;;2.00;1.80;;;;;;;31.11;26.66;98997.69;6943293;28;20673;-82
2023/07/18 09:17:11;;;;;;;2.63;2.13;;;;;;;31.17;26.93;98987.97;6988197;28;20241;-82
2023/07/18 09:20:33;;;;;;;2.77;2.30;;;;;;;31.11;26.71;98992.09;6992738;28;20711;-82
2023/07/18 09:23:54;;;;;;;2.30;2.07;;;;;;;30.96;26.69;98982.34;6970804;28;20216;-82
2023/07/18 09:27:17;;;;;;;2.13;1.90;;;;;;;32.94;24.43;98982.22;6970790;28;20224;-82
2023/07/18 09:30:39;;;;;;;2.43;2.23;;;;;;;33.98;23.37;98952.47;6972851;28;20265;-81
2023/07/18 09:34:11;;;;;;;4.20;2.57;;;;;;;33.74;23.90;98939.34;6971676;28;20245;-81
2023/07/18 09:37:45;;;;;;;3.37;2.27;;;;;;;34.69;22.68;98968.19;6970288;28;20721;-82
2023/07/18 09:41:07;;;;;;;3.40;2.63;;;;;;;34.27;23.05;98968.97;6970876;28;20240;-81
2023/07/18 09:44:29;;;;;;;4.77;2.40;;;;;;;35.05;22.21;98973.59;6970063;28;20238;-82
2023/07/18 09:47:52;;;;;;;3.53;2.77;;;;;;;35.23;21.61;98974.88;6970884;28;20206;-82
2023/07/18 09:51:20;;;;;;;4.77;2.40;;;;;;;34.50;22.13;98951.22;6973820;28;20199;-82
2023/07/18 09:54:44;;;;;;;4.00;2.83;;;;;;;34.09;22.28;98942.41;6949253;28;20199;-82
2023/07/18 09:58:06;;;;;;;5.00;2.77;;;;;;;33.43;23.66;98949.53;6944934;28;20330;-83
2023/07/18 10:01:29;;;;;;;4.77;2.77;;;;;;;33.30;24.43;98948.72;6964015;28;20219;-83
2023/07/18 10:04:50;;;;;;;5.43;2.63;;;;;;;34.24;23.54;98981.66;6952047;28;20310;-84
2023/07/18 10:08:13;;;;;;;4.60;2.83;;;;;;;33.03;24.09;98932.63;6976312;28;20218;-84
2023/07/18 10:12:06;;;;;;;3.63;3.00;;;;;;;34.15;24.05;99041.78;6976072;28;20260;-85
2023/07/18 10:15:29;;;;;;;6.13;2.83;;;;;;;33.90;24.01;99052.19;6979720;28;20285;-82
2023/07/18 10:18:51;;;;;;;5.73;2.80;;;;;;;33.29;25.30;99055.28;6978062;28;20266;-82
2023/07/18 10:22:13;;;;;;;3.30;2.60;;;;;;;32.76;24.99;99031.06;6981147;28;20210;-82
2023/07/18 10:25:38;;;;;;;4.53;2.60;;;;;;;32.93;25.29;99019.69;6979231;28;20698;-83
2023/07/18 10:29:02;;;;;;;4.93;2.53;;;;;;;33.06;25.25;98970.22;6981395;28;20574;-83
2023/07/18 10:32:31;;;;;;;5.03;2.67;;;;;;;32.76;25.38;98938.88;6978337;28;20286;-83
2023/07/18 10:35:52;;;;;;;3.27;2.83;;;;;;;32.91;25.53;98917.84;6962479;28;20588;-88
2023/07/18 10:39:14;;;;;;;5.60;3.40;;;;;;;32.28;26.41;98882.06;6944416;28;20222;-86
2023/07/18 10:42:38;;;;;;;4.37;2.73;;;;;;;31.79;27.10;98757.53;6947229;28;20228;-82
2023/07/18 10:46:06;;;;;;;7.03;2.70;;;;;;;29.88;29.77;98627.03;6946821;28;20234;-83
2023/07/18 10:49:28;;;;;;;3.43;3.03;;;;;;;29.54;30.40;98560.53;6969825;28;20228;-83
2023/07/18 10:52:50;;;;;;;3.97;2.87;;;;;;;30.28;29.88;98765.47;6972277;28;20231;-82
2023/07/18 10:56:19;;;;;;;4.67;2.70;;;;;;;31.82;28.30;98834.91;6974543;28;20206;-82
2023/07/18 10:59:44;;;;;;;5.97;2.90;;;;;;;32.47;26.94;98857.22;6972344;28;20576;-85
2023/07/18 11:03:06;;;;;;;8.50;3.40;;;;;;;32.63;27.05;98863.75;6971609;28;21045;-84
2023/07/18 11:06:28;;;;;;;3.97;2.67;;;;;;;33.07;27.05;98883.25;6970889;28;20359;-83
2023/07/18 11:09:55;;;;;;;4.23;2.97;;;;;;;33.97;25.83;98922.88;6975300;28;20359;-82
2023/07/18 11:13:16;;;;;;;5.80;3.10;;;;;;;33.76;24.89;98941.78;6974071;28;20671;-86
2023/07/18 11:16:39;;;;;;;4.63;3.17;;;;;;;33.46;25.52;98988.81;6985983;28;20332;-81
2023/07/18 11:20:02;;;;;;;3.03;2.80;;;;;;;32.57;26.26;98933.00;6999211;28;20229;-83
2023/07/18 11:23:24;;;;;;;4.70;3.00;;;;;;;32.58;26.57;99012.81;6997933;28;20691;-81
2023/07/18 11:26:46;;;;;;;6.00;2.90;;;;;;;32.16;27.24;99024.31;6995960;28;20307;-81
2023/07/18 11:30:09;;;;;;;4.87;3.47;;;;;;;31.50;27.84;99014.91;7000444;28;20228;-81
2023/07/18 11:33:32;;;;;;;3.80;3.00;;;;;;;32.04;27.32;99004.72;7001533;28;20257;-81
2023/07/18 11:36:53;;;;;;;7.93;3.50;;;;;;;32.24;27.29;99029.88;7004906;28;20298;-81
2023/07/18 11:40:19;;;;;;;5.53;3.33;;;;;;;31.85;28.43;98987.66;7009035;28;20384;-80
2023/07/18 11:43:41;;;;;;;4.07;2.83;;;;;;;32.47;27.39;98980.88;7002411;28;20283;-81
2023/07/18 11:47:02;;;;;;;4.13;3.33;;;;;;;32.13;28.28;98956.06;7001543;28;20739;-82
2023/07/18 11:50:28;;;;;;;4.00;3.10;;;;;;;31.94;28.23;99005.94;7002831;28;20355;-82
2023/07/18 11:53:53;;;;;;;5.17;3.10;;;;;;;32.07;27.41;98920.34;7010857;28;20276;-81
2023/07/18 11:57:15;;;;;;;4.40;3.10;;;;;;;31.41;29.41;98919.38;7011483;28;20245;-81
2023/07/18 12:00:36;;;;;;;3.90;3.00;;;;;;;30.99;30.11;98900.91;7005089;28;20245;-81
2023/07/18 12:03:58;;;;;;;4.40;3.10;;;;;;;31.65;30.48;98876.88;7003037;28;20297;-82
2023/07/18 12:07:21;;;;;;;3.80;3.00;;;;;;;30.75;29.56;98889.56;6983126;28;20323;-81
2023/07/18 12:10:43;;;;;;;5.90;3.63;;;;;;;31.43;27.83;98866.88;6976165;28;20285;-81
2023/07/18 12:14:06;;;;;;;3.87;3.27;;;;;;;31.44;28.37;98840.63;6976171;28;20299;-81
2023/07/18 12:17:28;;;;;;;6.10;3.33;;;;;;;31.30;30.14;98806.66;6983915;28;20256;-80
2023/07/18 12:20:50;;;;;;;4.97;3.30;;;;;;;30.65;30.59;98780.53;6979066;28;20227;-80
2023/07/18 12:24:12;;;;;;;4.27;3.20;;;;;;;31.16;29.50;98763.47;6980296;28;20213;-81
2023/07/18 12:27:34;;;;;;;4.97;3.30;;;;;;;30.28;31.87;98761.88;6963658;28;20391;-81
2023/07/18 12:30:56;;;;;;;4.57;3.13;;;;;;;31.14;30.27;98741.50;6976070;28;20604;-81
2023/07/18 12:34:17;;;;;;;4.97;3.13;;;;;;;31.31;30.33;98738.63;6976363;28;20203;-81
2023/07/18 12:37:39;;;;;;;5.87;3.40;;;;;;;32.27;29.24;98725.00;6974510;28;20250;-80
2023/07/18 12:41:02;;;;;;;4.10;2.97;;;;;;;32.71;28.23;98742.75;6975335;28;20287;-81
2023/07/18 12:44:37;;;;;;;4.00;3.20;;;;;;;33.33;28.12;98740.34;6972823;28;20212;-81
2023/07/18 12:47:59;;;;;;;5.77;3.50;;;;;;;32.59;28.20;98739.97;6974976;28;20711;-81
2023/07/18 12:51:21;;;;;;;5.60;3.37;;;;;;;32.22;28.33;98719.59;6968557;28;20236;-81
2023/07/18 12:54:43;;;;;;;3.97;3.23;;;;;;;32.48;28.28;98719.28;6974595;28;20235;-81
2023/07/18 12:58:05;;;;;;;4.20;3.57;;;;;;;33.21;27.89;98745.94;6946944;28;20277;-81
2023/07/18 13:01:27;;;;;;;4.33;3.23;;;;;;;33.10;27.38;98740.03;6964408;28;20282;-81
2023/07/18 13:04:49;;;;;;;3.47;3.10;;;;;;;32.79;27.60;98758.59;6968750;28;20205;-81
2023/07/18 13:08:10;;;;;;;4.67;3.37;;;;;;;32.77;28.54;98724.63;6960382;28;20312;-82
2023/07/18 13:11:32;;;;;;;4.53;3.30;;;;;;;33.02;28.56;98751.34;6962289;28;20213;-82
2023/07/18 13:14:55;;;;;;;4.37;3.57;;;;;;;32.36;29.13;98730.47;6973624;28;20294;-81
2023/07/18 13:18:16;;;;;;;4.53;3.40;;;;;;;32.23;28.96;98740.75;6974342;28;20320;-83
2023/07/18 13:21:38;;;;;;;4.77;3.47;;;;;;;32.70;28.58;98747.53;6973384;28;20297;-84
2023/07/18 13:24:59;;;;;;;5.27;3.60;;;;;;;32.85;28.27;98712.50;6972197;28;20285;-83
2023/07/18 13:28:21;;;;;;;8.97;3.90;;;;;;;33.00;28.24;98695.81;6971337;28;20616;-82
2023/07/18 13:31:43;;;;;;;4.03;3.27;;;;;;;32.57;29.03;98686.47;6970560;28;20204;-82
2023/07/18 13:35:06;;;;;;;7.33;3.33;;;;;;;33.23;28.16;98646.59;6971001;28;20690;-82
2023/07/18 13:38:27;;;;;;;5.33;3.70;;;;;;;32.53;28.14;98677.16;6971534;28;20236;-82
2023/07/18 13:41:49;;;;;;;5.23;3.47;;;;;;;31.19;30.07;98684.81;6972617;28;20664;-82
2023/07/18 13:45:11;;;;;;;3.97;3.57;;;;;;;33.16;28.02;98665.97;6973248;28;20269;-83
2023/07/18 13:48:34;;;;;;;5.93;3.13;;;;;;;33.38;27.27;98611.50;6973519;28;20234;-82
2023/07/18 13:51:55;;;;;;;4.90;3.23;;;;;;;33.69;27.94;98681.44;6973557;28;20206;-82
2023/07/18 13:55:18;;;;;;;5.27;3.60;;;;;;;33.70;27.05;98688.66;6973165;28;20232;-82
2023/07/18 13:58:39;;;;;;;6.53;3.43;;;;;;;33.62;26.94;98673.69;6964401;28;20261;-82
2023/07/18 14:02:01;;;;;;;3.43;3.10;;;;;;;34.17;25.62;98675.50;6970818;28;20260;-81
2023/07/18 14:05:24;;;;;;;6.87;3.30;;;;;;;33.92;26.56;98688.06;6971286;28;20303;-83
2023/07/18 14:08:46;;;;;;;4.13;3.47;;;;;;;32.61;28.15;98702.16;6970933;28;20593;-82
2023/07/18 14:12:09;;;;;;;5.00;3.57;;;;;;;33.48;28.12;98717.22;6968532;28;20299;-82
2023/07/18 14:15:32;;;;;;;8.87;3.57;;;;;;;33.51;28.13;98708.09;6972129;28;20222;-82
2023/07/18 14:18:56;;;;;;;3.67;3.37;;;;;;;32.77;28.39;98705.88;6973056;28;20312;-83
2023/07/18 14:22:19;;;;;;;8.67;3.67;;;;;;;33.60;28.21;98706.78;6973613;28;20213;-83
2023/07/18 14:25:40;;;;;;;4.70;3.30;;;;;;;33.76;27.46;98676.84;6972229;28;20312;-82
2023/07/18 14:29:02;;;;;;;5.13;3.73;;;;;;;33.50;27.54;98684.13;6973994;28;20754;-83
2023/07/18 14:32:23;;;;;;;3.60;3.30;;;;;;;33.62;28.37;98686.84;6973061;28;20290;-82
2023/07/18 14:35:45;;;;;;;4.57;3.30;;;;;;;33.71;27.86;98665.91;6966622;28;20225;-82
2023/07/18 14:39:08;;;;;;;4.17;3.07;;;;;;;33.70;28.17;98685.84;6986067;28;20287;-81
2023/07/18 14:42:30;;;;;;;5.93;4.03;;;;;;;33.95;28.26;98671.38;7000213;28;20219;-82
2023/07/18 14:45:52;;;;;;;4.53;3.73;;;;;;;33.78;28.49;98680.13;6999255;28;20343;-82
2023/07/18 14:49:13;;;;;;;6.00;3.40;;;;;;;34.07;27.82;98664.88;6972012;28;20736;-82
2023/07/18 14:52:35;;;;;;;5.00;3.50;;;;;;;34.11;27.99;98655.41;6975651;28;20234;-82
2023/07/18 14:55:58;;;;;;;7.77;3.63;;;;;;;33.70;28.45;98639.13;6964893;28;20234;-82
2023/07/18 14:59:19;;;;;;;7.23;3.90;;;;;;;33.84;27.99;98619.94;6975579;28;20307;-85
2023/07/18 15:02:41;;;;;;;4.77;3.73;;;;;;;33.20;29.07;98608.16;6964583;28;20211;-82
2023/07/18 15:06:04;;;;;;;4.23;3.77;;;;;;;33.05;29.03;98588.56;6966096;28;20362;-82
2023/07/18 15:09:26;;;;;;;6.20;4.20;;;;;;;33.66;29.11;98582.28;6975833;28;20229;-82
2023/07/18 15:12:49;;;;;;;6.07;3.47;;;;;;;33.83;28.34;98592.34;6976848;28;20212;-83
2023/07/18 15:16:13;;;;;;;5.23;3.70;;;;;;;33.83;28.13;98593.13;6974774;28;20198;-83
2023/07/18 15:19:35;;;;;;;4.47;3.30;;;;;;;33.90;28.43;98584.91;6976850;28;20229;-83
2023/07/18 15:22:56;;;;;;;3.80;3.40;;;;;;;33.76;28.13;98528.59;6956537;28;20660;-83
2023/07/18 15:26:18;;;;;;;5.77;3.50;;;;;;;33.72;28.36;98597.59;6970374;28;20329;-83
2023/07/18 15:29:43;;;;;;;6.77;3.27;;;;;;;33.92;28.29;98590.97;6974407;28;20221;-83
2023/07/18 15:33:04;;;;;;;4.67;3.63;;;;;;;34.05;28.12;98572.06;6975072;28;20667;-83
2023/07/18 15:36:27;;;;;;;4.73;3.63;;;;;;;32.69;28.63;98571.94;6962684;28;20786;-82
2023/07/18 15:39:48;;;;;;;5.13;3.70;;;;;;;32.86;29.58;98568.88;6990658;28;20247;-82
2023/07/18 15:43:10;;;;;;;3.87;3.47;;;;;;;33.89;28.51;98554.50;6974317;28;20279;-82
2023/07/18 15:46:37;;;;;;;7.00;3.70;;;;;;;33.68;28.31;98517.59;6971275;28;20241;-82
2023/07/18 15:49:59;;;;;;;5.03;3.40;;;;;;;33.33;29.09;98537.09;6952323;28;20234;-82
2023/07/18 15:53:21;;;;;;;4.50;3.57;;;;;;;33.00;28.82;98544.13;6966463;28;20675;-83
2023/07/18 15:56:42;;;;;;;5.37;3.60;;;;;;;33.73;28.39;98550.88;6974576;28;20273;-82
2023/07/18 16:00:07;;;;;;;4.17;3.70;;;;;;;33.34;28.59;98540.69;6976310;28;20331;-82
2023/07/18 16:03:30;;;;;;;4.90;3.40;;;;;;;34.03;27.94;98552.03;6980792;28;20305;-83